Time;durP1;ratioP1;P1;durP2;ratioP2;P2;SDS_P1;SDS_P2;PMS_P1;PMS_P2;Temp;Humidity;BMP_temperature;BMP_pressure;BME280_temperature;BME280_humidity;BME280_pressure;Samples;Min_cycle;Max_cycle;Signal;HPM_P1;HPM_P2
2021/07/28 00:01:36;;;;;;;9.27;7.85;;;24.00;99.90;;;;;;5032290;28;20041;-74
2021/07/28 00:04:02;;;;;;;9.90;8.35;;;24.00;99.90;;;;;;5031821;28;20049;-67
2021/07/28 00:06:28;;;;;;;11.48;8.35;;;23.90;99.90;;;;;;5035587;28;20037;-76
2021/07/28 00:08:53;;;;;;;12.20;8.48;;;24.00;99.90;;;;;;5031640;28;20048;-76
2021/07/28 00:11:19;;;;;;;12.85;8.93;;;24.00;99.90;;;;;;5043543;28;20037;-76
2021/07/28 00:13:46;;;;;;;12.45;9.07;;;23.90;99.90;;;;;;5030818;28;20041;-76
2021/07/28 00:16:15;;;;;;;14.18;9.55;;;23.90;99.90;;;;;;5038118;28;20051;-75
2021/07/28 00:18:51;;;;;;;12.52;10.07;;;23.80;99.90;;;;;;5040285;28;20029;-75
2021/07/28 00:24:00;;;;;;;12.70;9.68;;;23.80;99.90;;;;;;5039710;28;20056;-76
2021/07/28 00:26:26;;;;;;;13.13;9.00;;;23.70;99.90;;;;;;5033969;28;20124;-75
2021/07/28 00:28:52;;;;;;;12.60;9.20;;;23.70;99.90;;;;;;5023976;28;20041;-75
2021/07/28 00:31:18;;;;;;;12.02;9.73;;;23.50;99.90;;;;;;5023552;28;20119;-75
2021/07/28 00:33:44;;;;;;;12.55;10.25;;;23.70;99.90;;;;;;5021263;28;21309;-74
2021/07/28 00:36:09;;;;;;;12.48;10.65;;;23.70;99.90;;;;;;5023504;28;20095;-74
2021/07/28 00:38:35;;;;;;;16.63;10.40;;;23.70;99.90;;;;;;5027507;28;20071;-76
2021/07/28 00:41:01;;;;;;;12.50;9.75;;;23.70;99.90;;;;;;5051395;28;20424;-75
2021/07/28 00:43:27;;;;;;;11.25;9.48;;;23.50;99.90;;;;;;5029698;28;20041;-75
2021/07/28 00:45:53;;;;;;;14.05;10.32;;;23.50;99.90;;;;;;5015956;28;20045;-75
2021/07/28 00:48:18;;;;;;;13.40;10.43;;;23.60;99.90;;;;;;5022373;28;20096;-75
2021/07/28 00:50:44;;;;;;;14.57;10.32;;;23.70;99.90;;;;;;5032497;28;20037;-75
2021/07/28 00:53:19;;;;;;;15.80;10.95;;;23.70;99.90;;;;;;5048558;28;20029;-74
2021/07/28 00:55:50;;;;;;;14.00;10.45;;;23.70;99.90;;;;;;5039031;28;20057;-74
2021/07/28 00:58:16;;;;;;;14.85;10.20;;;23.80;99.90;;;;;;5047398;28;20530;-76
2021/07/28 01:00:43;;;;;;;16.38;11.75;;;23.60;99.90;;;;;;5038078;28;20757;-75
2021/07/28 01:03:09;;;;;;;17.25;11.82;;;23.70;99.90;;;;;;5034692;28;20367;-74
2021/07/28 01:05:35;;;;;;;13.60;10.00;;;23.60;99.90;;;;;;5024800;28;20465;-75
2021/07/28 01:08:01;;;;;;;12.43;9.95;;;23.70;99.90;;;;;;5030184;28;20060;-75
2021/07/28 01:10:26;;;;;;;13.30;10.68;;;23.70;99.90;;;;;;5026438;28;20046;-74
2021/07/28 01:12:54;;;;;;;14.30;11.07;;;23.60;99.90;;;;;;5044026;28;20045;-76
2021/07/28 01:15:39;;;;;;;13.45;10.85;;;23.60;99.90;;;;;;5048065;28;20029;-76
2021/07/28 01:18:14;;;;;;;13.05;11.10;;;23.40;99.90;;;;;;5019143;28;20034;-76
2021/07/28 01:20:42;;;;;;;13.27;11.00;;;23.30;99.90;;;;;;5034544;28;20041;-75
2021/07/28 01:23:12;;;;;;;11.95;10.65;;;23.50;99.90;;;;;;5034717;28;20166;-75
2021/07/28 01:25:39;;;;;;;14.30;11.15;;;23.40;99.90;;;;;;5032365;28;20747;-75
2021/07/28 01:28:06;;;;;;;13.35;10.57;;;23.40;99.90;;;;;;5031645;28;20553;-75
2021/07/28 01:30:32;;;;;;;16.50;11.07;;;23.30;99.90;;;;;;5041422;28;20098;-59
2021/07/28 01:33:01;;;;;;;17.02;11.15;;;23.40;99.90;;;;;;5031919;28;20042;-75
2021/07/28 01:35:27;;;;;;;13.00;10.43;;;23.30;99.90;;;;;;5037793;28;20044;-75
2021/07/28 01:37:54;;;;;;;13.93;10.52;;;23.30;99.90;;;;;;5031178;28;20048;-76
2021/07/28 01:40:19;;;;;;;16.75;10.57;;;23.30;99.90;;;;;;5026842;28;20120;-75
2021/07/28 01:42:46;;;;;;;16.17;11.23;;;23.40;99.90;;;;;;5042817;28;20132;-75
2021/07/28 01:45:13;;;;;;;15.48;12.15;;;23.40;99.90;;;;;;5026641;28;20025;-75
2021/07/28 01:47:40;;;;;;;15.30;11.18;;;23.30;99.90;;;;;;5028949;28;20033;-74
2021/07/28 01:50:07;;;;;;;14.63;11.45;;;23.30;99.90;;;;;;5028972;28;20042;-75
2021/07/28 01:52:37;;;;;;;16.27;12.20;;;23.30;99.90;;;;;;5025697;28;20037;-74
2021/07/28 01:55:05;;;;;;;15.88;11.27;;;23.30;99.90;;;;;;5035246;28;20524;-74
2021/07/28 01:57:31;;;;;;;14.07;11.55;;;23.40;99.90;;;;;;5054331;28;20056;-75
2021/07/28 02:00:00;;;;;;;16.42;11.68;;;23.40;99.90;;;;;;5032334;28;20037;-76
2021/07/28 02:02:32;;;;;;;17.70;12.80;;;23.20;99.90;;;;;;5024991;28;20038;-76
2021/07/28 02:05:04;;;;;;;17.77;13.02;;;23.10;99.90;;;;;;5023845;28;20845;-76
2021/07/28 02:07:30;;;;;;;15.73;12.38;;;23.00;99.90;;;;;;5032164;28;20067;-75
2021/07/28 02:09:56;;;;;;;15.93;12.25;;;23.10;99.90;;;;;;5025377;28;20037;-76
2021/07/28 02:12:22;;;;;;;17.80;13.10;;;23.10;99.90;;;;;;5036737;28;20085;-76
2021/07/28 02:14:48;;;;;;;17.63;12.30;;;23.20;99.90;;;;;;5032030;28;20041;-76
2021/07/28 02:17:14;;;;;;;16.55;11.98;;;23.30;99.90;;;;;;5018696;28;20671;-75
2021/07/28 02:19:40;;;;;;;17.48;13.77;;;23.30;99.90;;;;;;5026958;28;20096;-75
2021/07/28 02:22:06;;;;;;;14.32;11.13;;;23.40;99.90;;;;;;5040072;28;20498;-75
2021/07/28 02:24:31;;;;;;;14.30;11.88;;;23.30;99.90;;;;;;5027059;28;20071;-75
2021/07/28 02:26:57;;;;;;;16.23;11.38;;;23.10;99.90;;;;;;5043012;28;20445;-75
2021/07/28 02:29:22;;;;;;;16.13;11.63;;;23.20;99.90;;;;;;5034721;28;20499;-75
2021/07/28 02:31:48;;;;;;;12.52;10.00;;;23.10;99.90;;;;;;5017826;28;20088;-75
2021/07/28 02:34:14;;;;;;;15.82;10.38;;;23.30;99.90;;;;;;5034878;28;20040;-75
2021/07/28 02:36:39;;;;;;;16.27;11.60;;;23.30;99.90;;;;;;5023728;28;20045;-75
2021/07/28 02:39:05;;;;;;;14.95;10.75;;;23.30;99.90;;;;;;5033764;28;20613;-75
2021/07/28 02:41:30;;;;;;;15.27;11.23;;;23.10;99.90;;;;;;5039162;28;20067;-75
2021/07/28 02:43:56;;;;;;;13.00;10.77;;;23.10;99.90;;;;;;5025082;28;20048;-75
2021/07/28 02:46:21;;;;;;;13.13;10.10;;;23.10;99.90;;;;;;5027509;28;20131;-75
2021/07/28 02:48:48;;;;;;;13.77;9.82;;;23.00;99.90;;;;;;5034959;28;20041;-75
2021/07/28 02:51:14;;;;;;;15.85;10.55;;;23.00;99.90;;;;;;5041653;28;20036;-74
2021/07/28 02:53:40;;;;;;;15.13;10.93;;;23.00;99.90;;;;;;5031433;28;20043;-75
2021/07/28 02:56:05;;;;;;;16.73;10.23;;;23.00;99.90;;;;;;5034745;28;20383;-75
2021/07/28 02:58:31;;;;;;;13.43;9.82;;;23.00;99.90;;;;;;5047763;28;20139;-76
2021/07/28 03:00:56;;;;;;;13.20;9.80;;;22.90;99.90;;;;;;5041842;28;20082;-73
2021/07/28 03:03:23;;;;;;;16.30;9.68;;;23.00;99.90;;;;;;5045786;28;20047;-75
2021/07/28 03:05:49;;;;;;;12.20;9.77;;;23.00;99.90;;;;;;5038903;28;20398;-75
2021/07/28 03:08:14;;;;;;;17.23;10.38;;;23.00;99.90;;;;;;5042037;28;20083;-76
2021/07/28 03:10:40;;;;;;;11.52;9.32;;;23.10;99.90;;;;;;5035169;28;20065;-76
2021/07/28 03:13:05;;;;;;;15.98;10.20;;;23.00;99.90;;;;;;5041339;28;20167;-76
2021/07/28 03:15:31;;;;;;;12.40;9.75;;;23.00;99.90;;;;;;5033360;28;20052;-76
2021/07/28 03:17:57;;;;;;;14.98;10.10;;;22.90;99.90;;;;;;5028480;28;20037;-75
2021/07/28 03:20:37;;;;;;;17.10;9.73;;;23.10;99.90;;;;;;5039709;28;20053;-76
2021/07/28 03:23:03;;;;;;;18.83;11.82;;;23.10;99.90;;;;;;5041798;28;20053;-73
2021/07/28 03:25:28;;;;;;;15.02;11.50;;;22.90;99.90;;;;;;5029359;28;20037;-75
2021/07/28 03:27:54;;;;;;;12.20;10.88;;;22.90;99.90;;;;;;5023299;28;20033;-75
2021/07/28 03:30:20;;;;;;;14.95;11.57;;;22.90;99.90;;;;;;5035729;28;20086;-74
2021/07/28 03:32:45;;;;;;;15.30;11.45;;;22.90;99.90;;;;;;5031294;28;20044;-75
2021/07/28 03:35:11;;;;;;;19.05;12.82;;;23.00;99.90;;;;;;5030052;28;20376;-75
2021/07/28 03:37:37;;;;;;;14.73;13.13;;;23.10;99.90;;;;;;5038520;28;20049;-74
2021/07/28 03:40:03;;;;;;;16.20;12.23;;;23.10;99.90;;;;;;5028075;28;20040;-74
2021/07/28 03:42:29;;;;;;;16.30;11.80;;;23.00;99.90;;;;;;5047201;28;20118;-75
2021/07/28 03:45:08;;;;;;;17.85;13.15;;;23.00;99.90;;;;;;5046340;28;20041;-74
2021/07/28 03:47:33;;;;;;;16.65;12.48;;;22.90;99.90;;;;;;5036407;28;20390;-72
2021/07/28 03:49:59;;;;;;;16.20;12.98;;;23.00;99.90;;;;;;5033433;28;20041;-74
2021/07/28 03:52:25;;;;;;;16.35;12.52;;;23.00;99.90;;;;;;5047365;28;20154;-74
2021/07/28 03:54:51;;;;;;;16.15;12.73;;;23.00;99.90;;;;;;5040784;28;20041;-74
2021/07/28 03:57:17;;;;;;;17.38;13.68;;;23.10;99.90;;;;;;5038588;28;20049;-75
2021/07/28 03:59:42;;;;;;;25.27;13.43;;;23.10;99.90;;;;;;5029820;28;20041;-74
2021/07/28 04:02:08;;;;;;;17.17;12.50;;;23.00;99.90;;;;;;5030623;28;20033;-73
2021/07/28 04:04:34;;;;;;;16.30;13.50;;;23.00;99.90;;;;;;5027704;28;20034;-73
2021/07/28 04:06:59;;;;;;;21.48;16.10;;;23.00;99.90;;;;;;5028105;28;20041;-74
2021/07/28 04:09:25;;;;;;;19.92;15.82;;;22.90;99.90;;;;;;5016822;28;20091;-75
2021/07/28 04:11:51;;;;;;;19.77;15.02;;;22.90;99.90;;;;;;5035500;28;20414;-74
2021/07/28 04:14:17;;;;;;;17.45;13.88;;;22.80;99.90;;;;;;5027745;28;20218;-74
2021/07/28 04:16:42;;;;;;;26.45;15.10;;;22.80;99.90;;;;;;5043133;28;20113;-75
2021/07/28 04:19:08;;;;;;;19.77;16.40;;;23.00;99.90;;;;;;5042203;28;20037;-75
2021/07/28 04:21:33;;;;;;;23.40;18.63;;;22.70;99.90;;;;;;5048530;28;20041;-64
2021/07/28 04:23:59;;;;;;;19.48;16.58;;;22.70;99.90;;;;;;5041795;28;20095;-75
2021/07/28 04:26:25;;;;;;;19.65;16.27;;;22.70;99.90;;;;;;5032929;28;20045;-74
2021/07/28 04:28:50;;;;;;;21.30;17.00;;;22.80;99.90;;;;;;5032059;28;20092;-75
2021/07/28 04:31:37;;;;;;;20.48;17.40;;;22.70;99.90;;;;;;5037364;28;20045;-75
2021/07/28 04:34:03;;;;;;;23.83;16.80;;;22.80;99.90;;;;;;5034312;28;20148;-76
2021/07/28 04:36:28;;;;;;;27.35;19.80;;;22.80;99.90;;;;;;5043644;28;20577;-75
2021/07/28 04:38:54;;;;;;;22.55;19.13;;;22.60;99.90;;;;;;5034477;28;20050;-76
2021/07/28 04:41:19;;;;;;;26.10;20.23;;;22.50;99.90;;;;;;5037710;28;20400;-75
2021/07/28 04:43:45;;;;;;;26.38;20.70;;;22.50;99.90;;;;;;5045594;28;20049;-75
2021/07/28 04:46:11;;;;;;;25.90;20.88;;;22.50;99.90;;;;;;5035728;28;20082;-75
2021/07/28 04:48:36;;;;;;;28.05;22.20;;;22.50;99.90;;;;;;5048888;28;20040;-74
2021/07/28 04:51:02;;;;;;;27.00;20.08;;;22.50;99.90;;;;;;5030860;28;20060;-75
2021/07/28 04:53:28;;;;;;;24.27;19.52;;;22.70;99.90;;;;;;5038063;28;20445;-75
2021/07/28 04:55:58;;;;;;;22.67;20.05;;;22.70;99.90;;;;;;5024020;28;20053;-75
2021/07/28 04:58:25;;;;;;;24.00;18.88;;;22.70;99.90;;;;;;5027598;28;20132;-75
2021/07/28 05:00:51;;;;;;;20.85;18.65;;;22.60;99.90;;;;;;5026658;28;20497;-75
2021/07/28 05:03:18;;;;;;;24.63;19.40;;;22.60;99.90;;;;;;5033053;28;20041;-75
2021/07/28 05:05:44;;;;;;;26.73;22.00;;;22.70;99.90;;;;;;5026053;28;20724;-74
2021/07/28 05:08:10;;;;;;;26.33;22.45;;;22.70;99.90;;;;;;5034865;28;20060;-75
2021/07/28 05:10:36;;;;;;;27.30;21.23;;;22.50;99.90;;;;;;5024542;28;20546;-75
2021/07/28 05:13:02;;;;;;;30.08;21.40;;;22.70;99.90;;;;;;5028760;28;20045;-75
2021/07/28 05:15:28;;;;;;;28.15;19.77;;;22.90;99.90;;;;;;5027592;28;20472;-75
2021/07/28 05:17:54;;;;;;;21.85;17.98;;;22.80;99.90;;;;;;5038760;28;20041;-75
2021/07/28 05:20:20;;;;;;;21.55;19.23;;;22.90;99.90;;;;;;5054620;28;20106;-75
2021/07/28 05:22:46;;;;;;;24.05;19.02;;;23.00;99.90;;;;;;5049163;28;20075;-74
2021/07/28 05:25:12;;;;;;;23.40;17.88;;;23.00;99.90;;;;;;5041058;28;20040;-74
2021/07/28 05:27:38;;;;;;;22.25;17.65;;;23.10;99.90;;;;;;5048211;28;20045;-75
2021/07/28 05:30:05;;;;;;;23.73;18.90;;;23.20;99.90;;;;;;5034000;28;20052;-59
2021/07/28 05:32:30;;;;;;;23.35;18.95;;;23.00;99.90;;;;;;5021942;28;20133;-75
2021/07/28 05:34:56;;;;;;;24.05;19.48;;;23.10;99.90;;;;;;5047119;28;20040;-76
2021/07/28 05:37:23;;;;;;;21.98;18.33;;;22.90;99.90;;;;;;5034678;28;20029;-75
2021/07/28 05:39:49;;;;;;;25.85;18.17;;;23.10;99.90;;;;;;5047479;28;20114;-75
2021/07/28 05:42:14;;;;;;;21.90;17.58;;;23.00;99.90;;;;;;5043911;28;20045;-75
2021/07/28 05:44:40;;;;;;;23.02;18.48;;;23.00;99.90;;;;;;5034235;28;20084;-74
2021/07/28 05:47:06;;;;;;;21.85;18.45;;;23.10;99.90;;;;;;5041560;28;20033;-74
2021/07/28 05:49:32;;;;;;;22.77;17.48;;;23.20;99.90;;;;;;5037009;28;20041;-74
2021/07/28 05:51:58;;;;;;;24.35;17.02;;;23.30;99.90;;;;;;5028717;28;20497;-75
2021/07/28 05:54:24;;;;;;;20.60;15.63;;;23.20;99.90;;;;;;5028797;28;20041;-75
2021/07/28 05:56:49;;;;;;;23.65;15.98;;;23.20;99.90;;;;;;5030927;28;20059;-75
2021/07/28 05:59:15;;;;;;;21.23;16.77;;;23.30;99.90;;;;;;5038589;28;20114;-75
2021/07/28 06:01:41;;;;;;;20.63;15.70;;;23.40;99.90;;;;;;5037791;28;20052;-76
2021/07/28 06:04:06;;;;;;;19.60;15.57;;;23.40;99.90;;;;;;5031178;28;20041;-73
2021/07/28 06:06:32;;;;;;;22.73;16.95;;;23.40;99.90;;;;;;5037414;28;20524;-75
2021/07/28 06:08:58;;;;;;;19.52;15.38;;;23.50;99.90;;;;;;5036232;28;20056;-74
2021/07/28 06:11:23;;;;;;;22.13;16.40;;;23.60;99.90;;;;;;5039435;28;20442;-75
2021/07/28 06:13:50;;;;;;;23.10;15.93;;;23.60;99.90;;;;;;5029263;28;20040;-74
2021/07/28 06:16:15;;;;;;;21.50;14.85;;;23.70;99.90;;;;;;5027445;28;20037;-74
2021/07/28 06:18:41;;;;;;;18.85;14.57;;;23.80;99.90;;;;;;5019428;28;20100;-76
2021/07/28 06:21:07;;;;;;;17.75;14.15;;;23.80;99.90;;;;;;5045600;28;20040;-74
2021/07/28 06:23:32;;;;;;;20.48;14.20;;;23.70;99.90;;;;;;5041071;28;20753;-75
2021/07/28 06:25:58;;;;;;;26.13;14.20;;;23.70;99.90;;;;;;5029409;28;20033;-75
2021/07/28 06:28:25;;;;;;;16.98;13.70;;;23.90;99.90;;;;;;5025019;28;22095;-75
2021/07/28 06:30:51;;;;;;;18.67;13.18;;;24.00;99.90;;;;;;5035671;28;20052;-75
2021/07/28 06:33:18;;;;;;;16.52;11.90;;;24.00;99.90;;;;;;5027038;28;20121;-75
2021/07/28 06:35:45;;;;;;;17.88;11.85;;;24.00;99.90;;;;;;5039667;28;20041;-75
2021/07/28 06:38:10;;;;;;;18.88;13.05;;;24.00;99.90;;;;;;5035801;28;20044;-74
2021/07/28 06:40:36;;;;;;;18.27;11.93;;;24.00;99.90;;;;;;5029847;28;20034;-71
2021/07/28 06:43:02;;;;;;;18.52;13.60;;;24.20;99.90;;;;;;5051089;28;20124;-72
2021/07/28 06:45:27;;;;;;;17.00;11.60;;;24.20;99.90;;;;;;5020605;28;20037;-73
2021/07/28 06:47:53;;;;;;;16.27;10.27;;;24.30;99.90;;;;;;5038989;28;20476;-72
2021/07/28 06:50:19;;;;;;;18.38;11.05;;;24.40;99.90;;;;;;5035751;28;20106;-72
2021/07/28 06:52:46;;;;;;;18.73;11.73;;;24.40;99.90;;;;;;5028893;28;20419;-72
2021/07/28 06:55:12;;;;;;;16.88;11.35;;;24.60;99.90;;;;;;5044598;28;20045;-71
2021/07/28 06:57:38;;;;;;;15.50;10.43;;;24.60;99.90;;;;;;5023256;28;20099;-72
2021/07/28 07:00:05;;;;;;;19.15;11.18;;;24.60;99.90;;;;;;5035887;28;20675;-72
2021/07/28 07:02:37;;;;;;;17.00;10.10;;;24.80;99.90;;;;;;5035302;28;20079;-72
2021/07/28 07:05:03;;;;;;;17.75;11.52;;;24.90;99.90;;;;;;5020568;28;20037;-72
2021/07/28 07:07:29;;;;;;;13.20;10.13;;;25.00;99.90;;;;;;5029840;28;20027;-72
2021/07/28 07:09:55;;;;;;;11.10;8.40;;;25.00;99.90;;;;;;5041243;28;20119;-73
2021/07/28 07:12:21;;;;;;;20.98;10.15;;;24.90;99.90;;;;;;5024846;28;20045;-72
2021/07/28 07:14:47;;;;;;;13.45;9.85;;;24.80;99.90;;;;;;5041243;28;20041;-72
2021/07/28 07:17:13;;;;;;;14.50;9.90;;;24.80;99.90;;;;;;5036852;28;20037;-70
2021/07/28 07:19:38;;;;;;;12.20;9.60;;;24.80;99.90;;;;;;5040956;28;20045;-71
2021/07/28 07:22:04;;;;;;;12.27;10.07;;;24.80;99.90;;;;;;5034872;28;20076;-71
2021/07/28 07:24:30;;;;;;;11.30;8.90;;;24.70;99.90;;;;;;5039796;28;20103;-73
2021/07/28 07:26:56;;;;;;;15.98;8.95;;;24.70;99.90;;;;;;5013610;28;20033;-73
2021/07/28 07:29:21;;;;;;;15.48;10.25;;;24.70;99.90;;;;;;5035906;28;20044;-73
2021/07/28 07:31:47;;;;;;;12.25;9.48;;;24.70;99.90;;;;;;5041075;28;20073;-73
2021/07/28 07:34:13;;;;;;;16.90;9.43;;;24.60;99.90;;;;;;5029441;28;20076;-72
2021/07/28 07:36:39;;;;;;;15.07;10.15;;;24.70;99.90;;;;;;5015301;28;20149;-72
2021/07/28 07:39:05;;;;;;;12.80;9.02;;;24.80;99.90;;;;;;5029570;28;20431;-71
2021/07/28 07:41:31;;;;;;;12.85;9.63;;;24.80;99.90;;;;;;5036813;28;20036;-73
2021/07/28 07:43:59;;;;;;;12.27;9.00;;;24.80;99.90;;;;;;5043660;28;20052;-73
2021/07/28 07:46:25;;;;;;;11.30;9.35;;;24.70;99.90;;;;;;5044518;28;20046;-73
2021/07/28 07:48:50;;;;;;;17.10;9.50;;;24.80;99.90;;;;;;5043069;28;20048;-73
2021/07/28 07:51:16;;;;;;;14.75;8.82;;;24.80;99.90;;;;;;5050612;28;20037;-72
2021/07/28 07:53:42;;;;;;;17.33;11.05;;;25.00;99.90;;;;;;5040662;28;20064;-73
2021/07/28 07:56:07;;;;;;;17.10;10.32;;;25.10;99.90;;;;;;5046275;28;20036;-72
2021/07/28 07:58:34;;;;;;;20.13;10.43;;;25.00;99.90;;;;;;5037510;28;20047;-73
2021/07/28 08:01:06;;;;;;;14.32;9.75;;;25.10;99.90;;;;;;5041016;28;20037;-72
2021/07/28 08:03:31;;;;;;;13.60;9.32;;;25.30;99.90;;;;;;5030215;28;20037;-72
2021/07/28 08:05:57;;;;;;;18.60;11.40;;;25.50;99.90;;;;;;5032011;28;20375;-73
2021/07/28 08:08:23;;;;;;;12.93;9.30;;;25.80;99.90;;;;;;5017504;28;20120;-64
2021/07/28 08:10:48;;;;;;;17.55;11.45;;;25.80;99.90;;;;;;5027920;28;20133;-73
2021/07/28 08:13:14;;;;;;;18.10;10.70;;;26.00;99.90;;;;;;5035064;28;20056;-74
2021/07/28 08:15:40;;;;;;;13.55;9.27;;;26.30;99.90;;;;;;5044294;28;20095;-73
2021/07/28 08:18:06;;;;;;;12.88;8.07;;;26.40;99.90;;;;;;5053947;28;20037;-74
2021/07/28 08:20:32;;;;;;;14.52;8.15;;;26.50;99.90;;;;;;5041020;28;20399;-74
2021/07/28 08:22:58;;;;;;;17.25;8.20;;;26.70;99.90;;;;;;5039864;28;20051;-74
2021/07/28 08:25:23;;;;;;;12.93;9.38;;;26.80;99.90;;;;;;5037832;28;20522;-74
2021/07/28 08:27:49;;;;;;;15.50;8.02;;;26.80;99.90;;;;;;5030521;28;20065;-75
2021/07/28 08:30:14;;;;;;;16.42;11.00;;;26.90;99.90;;;;;;5029549;28;20044;-72
2021/07/28 08:32:42;;;;;;;16.35;9.45;;;27.10;99.90;;;;;;5040156;28;20033;-66
2021/07/28 08:35:09;;;;;;;11.88;8.20;;;27.30;99.90;;;;;;5028441;28;20480;-63
2021/07/28 08:37:37;;;;;;;13.80;8.10;;;27.40;99.90;;;;;;5015693;28;20037;-67
2021/07/28 08:40:16;;;;;;;11.98;7.50;;;27.50;99.90;;;;;;5037076;28;20041;-71
2021/07/28 08:42:45;;;;;;;16.83;7.47;;;27.60;99.90;;;;;;5026195;28;20037;-73
2021/07/28 08:45:14;;;;;;;11.77;7.90;;;27.70;99.90;;;;;;5023266;28;20435;-74
2021/07/28 08:47:39;;;;;;;12.15;8.35;;;27.80;99.90;;;;;;5029535;28;20547;-73
2021/07/28 08:50:10;;;;;;;14.15;8.18;;;27.80;99.90;;;;;;5039210;28;20168;-70
2021/07/28 08:52:37;;;;;;;15.55;7.88;;;27.60;99.90;;;;;;5048154;28;20128;-73
2021/07/28 08:55:04;;;;;;;11.32;7.25;;;27.50;99.90;;;;;;5030397;28;20088;-74
2021/07/28 08:57:32;;;;;;;12.00;7.70;;;27.60;99.90;;;;;;5047325;28;20343;-74
2021/07/28 08:59:58;;;;;;;13.18;7.45;;;27.50;99.90;;;;;;5037224;28;20037;-74
2021/07/28 09:02:25;;;;;;;15.50;8.85;;;27.50;99.90;;;;;;5031893;28;20399;-74
2021/07/28 09:04:51;;;;;;;13.50;7.82;;;27.60;99.90;;;;;;5041856;28;20029;-74
2021/07/28 09:07:19;;;;;;;12.10;7.60;;;27.70;99.90;;;;;;5038518;28;20048;-74
2021/07/28 09:09:53;;;;;;;10.57;7.40;;;27.70;99.90;;;;;;5030792;28;20390;-74
2021/07/28 09:12:20;;;;;;;16.30;8.68;;;27.90;99.90;;;;;;5043552;28;20500;-74
2021/07/28 09:14:54;;;;;;;9.43;7.88;;;27.80;99.90;;;;;;5045151;28;20029;-74
2021/07/28 09:17:27;;;;;;;12.50;7.53;;;27.90;99.90;;;;;;5047009;28;20041;-74
2021/07/28 09:19:54;;;;;;;10.77;6.35;;;27.90;99.90;;;;;;5046016;28;20037;-74
2021/07/28 09:22:21;;;;;;;10.88;6.45;;;27.90;99.90;;;;;;5034196;28;20094;-74
2021/07/28 09:25:08;;;;;;;9.85;6.38;;;27.90;99.90;;;;;;5044494;28;20032;-74
2021/07/28 09:28:03;;;;;;;11.90;7.32;;;27.70;99.90;;;;;;5034876;28;20036;-74
2021/07/28 09:30:32;;;;;;;11.70;6.40;;;28.10;99.90;;;;;;5003946;28;20067;-75
2021/07/28 09:32:58;;;;;;;12.38;7.35;;;28.20;99.90;;;;;;5048251;28;20037;-75
2021/07/28 09:35:54;;;;;;;12.25;7.35;;;28.20;99.90;;;;;;5030456;28;20076;-75
2021/07/28 09:38:35;;;;;;;12.52;8.05;;;28.30;99.90;;;;;;4978015;28;20041;-74
2021/07/28 09:41:11;;;;;;;12.30;7.50;;;28.30;99.90;;;;;;5030993;28;20736;-76
2021/07/28 09:43:58;;;;;;;12.82;7.35;;;28.50;99.90;;;;;;5038154;28;20483;-75
2021/07/28 09:46:32;;;;;;;11.13;8.20;;;28.50;99.90;;;;;;5045896;28;20045;-74
2021/07/28 09:49:00;;;;;;;14.82;8.77;;;28.60;99.90;;;;;;5038041;28;20040;-75
2021/07/28 09:51:39;;;;;;;16.02;8.45;;;28.60;99.90;;;;;;5014220;28;20085;-75
2021/07/28 09:54:07;;;;;;;14.68;8.05;;;28.60;99.90;;;;;;5045090;28;20036;-67
2021/07/28 09:56:48;;;;;;;10.23;7.38;;;28.70;99.90;;;;;;5035890;28;20037;-75
2021/07/28 09:59:15;;;;;;;12.65;8.05;;;28.60;99.90;;;;;;5020577;28;20029;-74
2021/07/28 10:01:42;;;;;;;13.40;7.45;;;28.70;99.90;;;;;;5032299;28;20184;-74
2021/07/28 10:04:10;;;;;;;11.27;7.00;;;28.60;99.90;;;;;;5034697;28;20029;-74
2021/07/28 10:06:43;;;;;;;10.13;6.65;;;28.70;99.90;;;;;;5027494;28;20037;-73
2021/07/28 10:09:11;;;;;;;15.30;7.88;;;28.90;99.90;;;;;;5051318;28;20047;-74
2021/07/28 10:11:44;;;;;;;9.70;7.22;;;28.90;99.90;;;;;;5030265;28;20141;-75
2021/07/28 10:14:11;;;;;;;15.10;8.25;;;28.60;99.90;;;;;;5032243;28;20051;-74
2021/07/28 10:16:37;;;;;;;12.40;7.28;;;28.70;99.90;;;;;;5049357;28;20098;-73
2021/07/28 10:19:04;;;;;;;11.35;7.10;;;28.70;99.90;;;;;;5044482;28;20118;-75
2021/07/28 10:21:34;;;;;;;9.45;7.80;;;28.80;99.90;;;;;;5023753;28;20038;-75
2021/07/28 10:24:02;;;;;;;12.93;8.13;;;29.00;99.90;;;;;;5047040;28;20116;-75
2021/07/28 10:26:45;;;;;;;13.48;7.70;;;28.90;99.90;;;;;;5025991;28;20494;-75
2021/07/28 10:29:14;;;;;;;11.70;8.33;;;29.30;99.90;;;;;;5014106;28;20029;-75
2021/07/28 10:32:06;;;;;;;11.20;8.48;;;29.40;99.90;;;;;;5027448;28;20272;-75
2021/07/28 10:34:36;;;;;;;12.50;8.07;;;29.50;99.90;;;;;;5036029;28;20044;-76
2021/07/28 10:37:04;;;;;;;10.18;7.90;;;29.50;99.90;;;;;;5045542;28;20128;-75
2021/07/28 10:39:50;;;;;;;11.45;6.93;;;29.60;99.90;;;;;;5034330;28;20048;-75
2021/07/28 10:42:19;;;;;;;15.93;7.80;;;29.70;99.90;;;;;;5005972;28;20041;-75
2021/07/28 10:45:01;;;;;;;11.52;7.32;;;29.60;99.90;;;;;;5018657;28;20068;-75
2021/07/28 10:47:39;;;;;;;14.95;7.28;;;29.70;99.50;;;;;;5036003;28;20087;-75
2021/07/28 10:50:33;;;;;;;14.48;6.85;;;29.40;99.80;;;;;;5039669;28;20056;-74
2021/07/28 10:53:03;;;;;;;22.20;11.70;;;29.40;99.30;;;;;;5014051;28;20045;-75
2021/07/28 10:55:29;;;;;;;12.07;8.05;;;29.40;99.90;;;;;;5037762;28;20033;-73
2021/07/28 10:58:07;;;;;;;11.35;8.75;;;29.20;99.90;;;;;;5039392;28;20044;-74
2021/07/28 11:00:35;;;;;;;9.98;7.38;;;29.40;99.80;;;;;;5030472;28;20102;-74
2021/07/28 11:03:07;;;;;;;12.82;8.25;;;29.20;99.90;;;;;;5046433;28;20033;-74
2021/07/28 11:05:34;;;;;;;12.27;8.45;;;29.20;99.90;;;;;;5028458;28;20059;-74
2021/07/28 11:08:03;;;;;;;14.05;8.70;;;29.30;99.90;;;;;;5045213;28;20141;-75
2021/07/28 11:10:30;;;;;;;13.45;9.32;;;29.30;99.90;;;;;;5033408;28;20036;-75
2021/07/28 11:12:56;;;;;;;10.48;7.63;;;29.30;99.90;;;;;;5047624;28;20110;-75
2021/07/28 11:15:22;;;;;;;12.65;7.72;;;29.20;99.90;;;;;;5041269;28;20125;-75
2021/07/28 11:17:55;;;;;;;11.18;6.53;;;29.10;99.90;;;;;;5041669;28;20134;-75
2021/07/28 11:20:32;;;;;;;11.63;7.82;;;28.90;99.50;;;;;;5040307;28;20029;-76
2021/07/28 11:23:27;;;;;;;12.88;7.43;;;28.80;99.90;;;;;;5027847;28;20095;-76
2021/07/28 11:25:55;;;;;;;10.15;6.78;;;28.50;99.80;;;;;;5005447;28;20044;-78
2021/07/28 11:28:21;;;;;;;14.38;7.25;;;28.40;99.90;;;;;;5053712;28;20031;-77
2021/07/28 11:31:01;;;;;;;13.63;7.63;;;28.40;99.90;;;;;;5018637;28;20483;-76
2021/07/28 11:33:31;;;;;;;11.95;7.75;;;28.40;99.90;;;;;;5049020;28;20045;-76
2021/07/28 11:35:58;;;;;;;13.85;7.70;;;28.40;99.90;;;;;;5027469;28;20065;-76
2021/07/28 11:38:32;;;;;;;13.48;8.60;;;28.40;99.90;;;;;;5034910;28;20030;-76
2021/07/28 11:41:00;;;;;;;13.13;8.95;;;28.50;99.90;;;;;;5014501;28;20040;-76
2021/07/28 11:43:27;;;;;;;14.18;8.35;;;28.70;99.90;;;;;;5036821;28;20094;-76
2021/07/28 11:46:04;;;;;;;12.40;7.65;;;28.80;99.90;;;;;;5034196;28;20029;-75
2021/07/28 11:48:37;;;;;;;10.77;7.35;;;29.00;99.90;;;;;;5040755;28;20486;-76
2021/07/28 11:51:17;;;;;;;15.43;8.02;;;29.00;99.90;;;;;;5013506;28;20215;-76
2021/07/28 11:53:42;;;;;;;11.40;7.05;;;29.00;99.90;;;;;;5011236;28;20115;-74
2021/07/28 11:56:10;;;;;;;20.40;9.10;;;28.80;99.90;;;;;;5022836;28;20117;-75
2021/07/28 11:58:44;;;;;;;14.18;7.50;;;28.80;99.90;;;;;;5041795;28;20059;-69
2021/07/28 12:01:19;;;;;;;11.63;6.68;;;28.60;99.90;;;;;;5036307;28;20030;-74
2021/07/28 12:03:49;;;;;;;12.70;7.60;;;28.70;99.90;;;;;;5030816;28;20034;-75
2021/07/28 12:06:15;;;;;;;11.45;7.45;;;28.60;99.90;;;;;;5022782;28;20427;-77
2021/07/28 12:08:41;;;;;;;13.45;8.27;;;28.50;99.90;;;;;;5025522;28;20044;-76
2021/07/28 12:11:08;;;;;;;11.20;7.32;;;28.50;99.90;;;;;;5023372;28;20049;-77
2021/07/28 12:13:48;;;;;;;14.43;8.45;;;28.50;99.90;;;;;;5045758;28;20120;-76
2021/07/28 12:16:14;;;;;;;12.57;8.43;;;28.60;99.90;;;;;;5007450;28;20127;-76
2021/07/28 12:18:42;;;;;;;12.65;7.07;;;28.60;99.90;;;;;;5021638;28;20507;-75
2021/07/28 12:21:08;;;;;;;11.55;8.43;;;28.60;99.90;;;;;;5031545;28;20061;-75
2021/07/28 12:23:33;;;;;;;12.52;7.80;;;28.70;99.90;;;;;;5024196;28;20045;-75
2021/07/28 12:25:59;;;;;;;10.32;6.80;;;28.90;99.90;;;;;;5035281;28;20052;-75
2021/07/28 12:28:48;;;;;;;19.77;9.13;;;28.80;99.70;;;;;;5029391;28;20044;-75
2021/07/28 12:31:27;;;;;;;17.77;9.35;;;28.90;99.90;;;;;;5022558;28;20068;-75
2021/07/28 12:33:53;;;;;;;44.88;14.15;;;29.00;99.90;;;;;;5030510;28;20398;-75
2021/07/28 12:36:27;;;;;;;44.75;14.10;;;29.10;99.90;;;;;;5037039;28;20045;-75
2021/07/28 12:38:52;;;;;;;17.20;10.32;;;29.30;99.90;;;;;;5020584;28;20041;-75